createdAt,value
2023-02-04T00:00:24.544Z,17.50
2023-02-04T00:04:43.563Z,15.50
2023-02-04T00:08:41.556Z,14.30
2023-02-04T00:12:40.858Z,13.70
2023-02-04T00:16:38.554Z,15.90
2023-02-04T00:20:37.500Z,14.50
2023-02-04T00:24:35.536Z,15.30
2023-02-04T00:28:33.556Z,15.60
2023-02-04T00:32:32.558Z,15.80
2023-02-04T00:36:30.540Z,16.30
2023-02-04T00:40:28.861Z,14.20
2023-02-04T00:44:26.599Z,14.90
2023-02-04T00:48:26.513Z,14.90
2023-02-04T00:52:24.558Z,13.20
2023-02-04T00:56:24.513Z,14.10
2023-02-04T01:00:22.462Z,13.60
2023-02-04T01:04:21.457Z,15.70
2023-02-04T01:08:19.504Z,14.20
2023-02-04T01:12:18.451Z,14.00
2023-02-04T01:16:16.485Z,13.30
2023-02-04T01:20:14.463Z,13.20
2023-02-04T01:24:19.426Z,13.60
2023-02-04T01:28:36.440Z,11.10
2023-02-04T01:32:36.429Z,11.90
2023-02-04T01:36:34.559Z,11.50
2023-02-04T01:40:32.722Z,10.10
2023-02-04T01:44:30.408Z,9.60
2023-02-04T01:48:28.399Z,10.00
2023-02-04T01:52:26.420Z,10.80
2023-02-04T01:56:35.383Z,10.80
2023-02-04T02:00:46.521Z,9.30
2023-02-04T02:04:47.382Z,10.50
2023-02-04T02:08:45.394Z,12.30
2023-02-04T02:12:43.490Z,12.30
2023-02-04T02:16:41.600Z,12.20
2023-02-04T02:20:41.350Z,13.20
2023-02-04T02:24:42.342Z,13.60
2023-02-04T02:28:42.455Z,13.30
2023-02-04T02:32:40.350Z,12.80
2023-02-04T02:36:38.312Z,13.50
2023-02-04T02:40:36.500Z,13.60
2023-02-04T02:44:36.324Z,16.40
2023-02-04T02:48:36.341Z,15.30
2023-02-04T02:52:34.292Z,14.60
2023-02-04T02:56:35.298Z,14.60
2023-02-04T03:00:42.297Z,14.20
2023-02-04T03:04:46.381Z,15.00
2023-02-04T03:08:47.286Z,15.30
2023-02-04T03:12:45.305Z,16.10
2023-02-04T03:16:45.338Z,14.10
2023-02-04T03:20:47.305Z,15.00
2023-02-04T03:24:45.288Z,15.50
2023-02-04T03:28:43.266Z,15.40
2023-02-04T03:32:41.251Z,14.70
2023-02-04T03:36:39.267Z,14.20
2023-02-04T03:40:37.236Z,17.50
2023-02-04T03:44:35.305Z,18.40
2023-02-04T03:48:33.196Z,18.00
2023-02-04T03:52:31.340Z,15.90
2023-02-04T03:56:29.245Z,19.00
2023-02-04T04:00:28.378Z,17.40
2023-02-04T04:04:26.343Z,19.30
2023-02-04T04:08:26.336Z,18.60
2023-02-04T04:12:24.207Z,18.10
2023-02-04T04:16:22.245Z,19.30
2023-02-04T04:20:20.144Z,16.90
2023-02-04T04:24:18.224Z,18.00
2023-02-04T04:28:16.235Z,16.50
2023-02-04T04:32:14.200Z,18.10
2023-02-04T04:36:12.179Z,15.70
2023-02-04T04:40:10.154Z,16.10
2023-02-04T04:44:08.171Z,13.60
2023-02-04T04:48:07.232Z,12.30
2023-02-04T04:52:06.143Z,15.30
2023-02-04T04:56:04.137Z,12.60
2023-02-04T05:00:02.237Z,11.60
2023-02-04T05:04:00.288Z,11.20
2023-02-04T05:07:58.102Z,10.40
2023-02-04T05:11:56.110Z,9.30
2023-02-04T05:15:54.092Z,8.90
2023-02-04T05:19:52.109Z,7.30
2023-02-04T05:23:50.120Z,7.80
2023-02-04T05:27:48.117Z,6.90
2023-02-04T05:31:46.192Z,7.20
2023-02-04T05:35:48.628Z,7.30
2023-02-04T05:39:49.162Z,6.30
2023-02-04T05:43:47.053Z,7.00
2023-02-04T05:47:46.155Z,6.80
2023-02-04T05:51:44.123Z,6.40
2023-02-04T05:55:42.026Z,5.90
2023-02-04T05:59:40.073Z,5.70
2023-02-04T06:03:40.148Z,6.60
2023-02-04T06:07:39.028Z,6.90
2023-02-04T06:11:36.993Z,5.90
2023-02-04T06:15:35.020Z,9.10
2023-02-04T06:19:33.007Z,7.50
2023-02-04T06:23:30.985Z,6.80
2023-02-04T06:27:30.998Z,5.90
2023-02-04T06:31:29.077Z,7.20
2023-02-04T06:35:33.970Z,5.70
2023-02-04T06:39:32.000Z,6.00
2023-02-04T06:43:31.970Z,5.60
2023-02-04T06:47:29.967Z,4.40
2023-02-04T06:51:28.045Z,4.50
2023-02-04T06:55:26.112Z,4.20
2023-02-04T06:59:24.957Z,4.20
2023-02-04T07:03:22.995Z,4.00
2023-02-04T07:07:20.898Z,4.50
2023-02-04T07:11:20.079Z,4.30
2023-02-04T07:15:17.952Z,5.30
2023-02-04T07:19:16.137Z,4.20
2023-02-04T07:23:22.925Z,3.90
2023-02-04T07:27:20.909Z,3.60
2023-02-04T07:31:19.101Z,4.10
2023-02-04T07:35:17.986Z,4.30
2023-02-04T07:39:15.882Z,4.00
2023-02-04T07:43:14.960Z,4.40
2023-02-04T07:47:12.878Z,3.90
2023-02-04T07:51:10.912Z,4.20
2023-02-04T07:55:08.885Z,4.30
2023-02-04T07:59:06.850Z,6.40
2023-02-04T08:03:06.988Z,5.00
2023-02-04T08:07:04.906Z,5.70
2023-02-04T08:11:02.958Z,5.30
2023-02-04T08:15:00.864Z,4.70
2023-02-04T08:18:58.809Z,6.30
2023-02-04T08:22:56.885Z,5.90
2023-02-04T08:26:55.804Z,6.70
2023-02-04T08:30:53.893Z,5.90
2023-02-04T08:34:51.781Z,6.60
2023-02-04T08:38:51.808Z,6.00
2023-02-04T08:42:51.767Z,5.90
2023-02-04T08:46:50.871Z,6.50
2023-02-04T08:50:48.788Z,7.00
2023-02-04T08:54:49.771Z,7.20
2023-02-04T08:58:47.829Z,7.90
2023-02-04T09:02:45.769Z,6.70
2023-02-04T09:06:43.775Z,7.00
2023-02-04T09:10:41.974Z,7.60
2023-02-04T09:14:39.755Z,6.80
2023-02-04T09:18:41.024Z,6.40
2023-02-04T09:22:40.737Z,8.00
2023-02-04T09:26:38.743Z,7.10
2023-02-04T09:30:36.743Z,6.90
2023-02-04T09:34:34.719Z,8.30
2023-02-04T09:38:32.706Z,7.60
2023-02-04T09:42:30.756Z,7.40
2023-02-04T09:46:36.677Z,6.00
2023-02-04T09:50:39.721Z,6.10
2023-02-04T09:54:39.727Z,5.40
2023-02-04T09:58:38.759Z,5.20
2023-02-04T10:02:41.698Z,5.90
2023-02-04T10:06:39.710Z,6.60
2023-02-04T10:10:39.651Z,6.70
2023-02-04T10:14:39.694Z,6.30
2023-02-04T10:18:43.605Z,5.50
2023-02-04T10:22:41.627Z,5.70
2023-02-04T10:26:43.591Z,5.80
2023-02-04T10:30:43.825Z,4.90
2023-02-04T10:34:49.694Z,4.70
2023-02-04T10:38:47.674Z,3.80
2023-02-04T10:42:46.680Z,3.50
2023-02-04T10:46:46.652Z,3.90
2023-02-04T10:50:44.613Z,4.00
2023-02-04T10:54:52.622Z,5.10
2023-02-04T10:58:53.652Z,5.30
2023-02-04T11:03:18.644Z,5.40
2023-02-04T11:07:09.774Z,4.10
2023-02-04T11:11:16.648Z,4.80
2023-02-04T11:15:14.579Z,4.70
2023-02-04T11:19:16.740Z,4.30
2023-02-04T11:23:49.617Z,3.20
2023-02-04T11:27:56.750Z,2.80
2023-02-04T11:31:58.713Z,2.60
2023-02-04T11:36:15.553Z,3.10
2023-02-04T11:40:14.638Z,2.70
2023-02-04T11:44:12.524Z,2.90
2023-02-04T11:48:13.547Z,2.60
2023-02-04T11:52:22.522Z,2.60
2023-02-04T11:56:20.498Z,2.50
2023-02-04T12:00:21.521Z,2.20
2023-02-04T12:04:22.459Z,3.50
2023-02-04T12:08:45.494Z,2.80
2023-02-04T12:12:45.509Z,2.70
2023-02-04T12:16:43.584Z,2.60
2023-02-04T12:20:43.468Z,3.40
2023-02-04T12:24:41.541Z,3.00
2023-02-04T12:28:40.481Z,2.40
2023-02-04T12:32:39.626Z,2.90
2023-02-04T12:36:37.502Z,3.50
2023-02-04T12:40:36.506Z,3.50
2023-02-04T12:44:34.483Z,4.00
2023-02-04T12:48:32.531Z,3.50
2023-02-04T12:52:31.464Z,3.70
2023-02-04T12:56:30.429Z,3.40
2023-02-04T13:00:30.433Z,4.00
2023-02-04T13:04:28.421Z,4.10
2023-02-04T13:08:27.390Z,3.70
2023-02-04T13:12:25.412Z,3.80
2023-02-04T13:16:29.454Z,3.70
2023-02-04T13:20:27.557Z,4.20
2023-02-04T13:24:25.438Z,4.50
2023-02-04T13:28:25.510Z,4.10
2023-02-04T13:32:23.549Z,4.10
2023-02-04T13:36:23.477Z,4.50
2023-02-04T13:40:22.326Z,5.60
2023-02-04T13:44:20.450Z,4.70
2023-02-04T13:48:19.327Z,4.90
2023-02-04T13:52:18.494Z,4.80
2023-02-04T13:56:18.381Z,5.10
2023-02-04T14:00:20.363Z,4.20
2023-02-04T14:04:18.374Z,5.10
2023-02-04T14:08:17.440Z,4.20
2023-02-04T14:12:15.315Z,4.30
2023-02-04T14:16:15.476Z,3.70
2023-02-04T14:20:16.337Z,5.00
2023-02-04T14:24:16.381Z,3.10
2023-02-04T14:28:14.345Z,4.10
2023-02-04T14:32:12.375Z,4.20
2023-02-04T14:36:10.358Z,4.80
2023-02-04T14:40:10.296Z,3.80
2023-02-04T14:44:10.297Z,3.90
2023-02-04T14:48:11.224Z,3.90
2023-02-04T14:52:12.609Z,4.10
2023-02-04T14:56:12.332Z,4.60
2023-02-04T15:00:10.260Z,4.30
2023-02-04T15:04:08.706Z,3.80
2023-02-04T15:08:07.304Z,4.20
2023-02-04T15:11:44.906Z,4.30
2023-02-04T15:15:11.459Z,4.70
2023-02-04T15:18:40.541Z,5.10
2023-02-04T15:22:04.726Z,4.80
2023-02-04T15:25:28.756Z,4.50
2023-02-04T15:28:53.298Z,5.70
2023-02-04T15:32:17.484Z,5.20
2023-02-04T15:35:41.364Z,6.40
2023-02-04T15:39:06.818Z,5.50
2023-02-04T15:42:30.861Z,5.20
2023-02-04T15:49:21.998Z,4.80
2023-02-04T15:52:46.721Z,5.00
2023-02-04T15:56:11.106Z,6.20
2023-02-04T15:59:35.256Z,4.90
2023-02-04T16:02:59.314Z,5.70
2023-02-04T16:06:32.184Z,4.90
2023-02-04T16:09:56.351Z,6.00
2023-02-04T16:13:22.683Z,5.50
2023-02-04T16:16:46.780Z,5.90
2023-02-04T16:20:13.247Z,5.60
2023-02-04T16:23:37.098Z,5.50
2023-02-04T16:27:01.178Z,5.40
2023-02-04T16:30:25.147Z,5.20
2023-02-04T16:33:49.028Z,6.10
2023-02-04T16:37:16.189Z,6.70
2023-02-04T16:40:40.245Z,5.90
2023-02-04T16:44:04.144Z,6.70
2023-02-04T16:47:28.131Z,6.60
2023-02-04T16:50:53.952Z,6.70
2023-02-04T16:54:18.234Z,6.40
2023-02-04T16:57:46.797Z,5.30
2023-02-04T17:01:11.232Z,6.40
2023-02-04T17:04:37.883Z,5.50
2023-02-04T17:08:01.795Z,5.90
2023-02-04T17:11:31.848Z,7.20
2023-02-04T17:14:56.295Z,6.00
2023-02-04T17:18:22.664Z,5.80
2023-02-04T17:21:46.910Z,6.80
2023-02-04T17:25:10.975Z,6.40
2023-02-04T17:28:35.359Z,6.80
2023-02-04T17:31:59.270Z,6.80
2023-02-04T17:35:26.436Z,8.30
2023-02-04T17:38:50.593Z,6.40
2023-02-04T17:42:17.537Z,6.00
2023-02-04T17:45:44.596Z,6.70
2023-02-04T17:49:09.693Z,8.50
2023-02-04T17:52:35.542Z,7.10
2023-02-04T17:55:59.537Z,7.00
2023-02-04T17:59:23.976Z,6.80
2023-02-04T18:02:49.819Z,6.70
2023-02-04T18:06:19.424Z,7.00
2023-02-04T18:09:43.351Z,8.10
2023-02-04T18:13:36.742Z,7.50
2023-02-04T18:17:01.901Z,7.10
2023-02-04T18:20:32.646Z,7.40
2023-02-04T18:24:19.040Z,6.70
2023-02-04T18:27:43.150Z,7.00
2023-02-04T18:31:26.170Z,8.50
2023-02-04T18:34:57.522Z,7.60
2023-02-04T18:38:32.405Z,7.90
2023-02-04T18:41:57.562Z,6.00
2023-02-04T18:45:28.567Z,6.80
2023-02-04T18:49:06.152Z,7.20
2023-02-04T18:52:37.904Z,6.80
2023-02-04T18:56:02.693Z,7.70
2023-02-04T18:59:29.056Z,5.80
2023-02-04T19:03:07.670Z,6.70
2023-02-04T19:06:41.379Z,6.70
2023-02-04T19:10:27.989Z,6.80
2023-02-04T19:13:58.392Z,8.30
2023-02-04T19:17:37.348Z,6.40
2023-02-04T19:21:20.517Z,8.50
2023-02-04T19:24:44.553Z,8.00
2023-02-04T19:28:25.881Z,8.40
2023-02-04T19:31:57.131Z,7.10
2023-02-04T19:35:23.611Z,9.10
2023-02-04T19:38:53.210Z,9.70
2023-02-04T19:42:26.224Z,8.40
2023-02-04T19:45:52.327Z,8.20
2023-02-04T19:49:26.742Z,9.60
2023-02-04T19:52:56.216Z,7.20
2023-02-04T19:56:40.933Z,7.00
2023-02-04T20:00:36.100Z,8.80
2023-02-04T20:04:04.337Z,7.50
2023-02-04T20:07:29.971Z,7.40
2023-02-04T20:10:54.892Z,8.20
2023-02-04T20:14:24.022Z,7.90
2023-02-04T20:17:52.262Z,8.40
2023-02-04T20:21:16.689Z,8.60
2023-02-04T20:24:56.516Z,6.60
2023-02-04T20:28:23.569Z,8.90
2023-02-04T20:31:50.286Z,7.80
2023-02-04T20:35:14.375Z,8.90
2023-02-04T20:38:38.583Z,7.40
2023-02-04T20:42:44.205Z,7.40
2023-02-04T20:46:08.758Z,7.10
2023-02-04T20:49:42.906Z,7.40
2023-02-04T20:53:17.260Z,8.30
2023-02-04T20:56:44.000Z,6.90
2023-02-04T21:00:15.435Z,7.80
2023-02-04T21:03:40.126Z,7.80
2023-02-04T21:10:40.728Z,8.00
2023-02-04T21:14:04.850Z,7.70
2023-02-04T21:17:28.773Z,8.00
2023-02-04T21:20:53.006Z,7.30
2023-02-04T21:24:17.466Z,7.80
2023-02-04T21:27:41.429Z,8.40
2023-02-04T21:31:05.419Z,8.20
2023-02-04T21:34:29.659Z,7.50
2023-02-04T21:37:54.895Z,7.50
2023-02-04T21:41:20.773Z,7.60
2023-02-04T21:44:45.069Z,6.50
2023-02-04T21:48:09.251Z,7.00
2023-02-04T21:51:33.233Z,7.20
2023-02-04T21:55:00.228Z,6.60
2023-02-04T21:58:24.271Z,6.70
2023-02-04T22:01:49.594Z,7.60
2023-02-04T22:05:14.858Z,7.00
2023-02-04T22:08:38.772Z,7.70
2023-02-04T22:12:06.030Z,8.10
2023-02-04T22:15:32.202Z,6.90
2023-02-04T22:19:02.915Z,8.40
2023-02-04T22:22:26.792Z,8.00
2023-02-04T22:25:51.082Z,7.10
2023-02-04T22:29:19.425Z,7.90
2023-02-04T22:32:43.700Z,8.60
2023-02-04T22:36:07.954Z,6.60
2023-02-04T22:39:32.370Z,7.50
2023-02-04T22:42:56.205Z,7.20
2023-02-04T22:46:20.149Z,6.90
2023-02-04T22:49:46.744Z,8.20
2023-02-04T22:53:10.625Z,7.40
2023-02-04T22:56:37.764Z,8.10
2023-02-04T23:00:01.612Z,7.00
2023-02-04T23:03:25.928Z,7.30
2023-02-04T23:06:53.427Z,7.10
2023-02-04T23:10:17.481Z,7.40
2023-02-04T23:13:41.336Z,7.00
2023-02-04T23:20:31.261Z,6.30
2023-02-04T23:23:55.606Z,6.20
2023-02-04T23:27:19.577Z,6.60
2023-02-04T23:30:46.531Z,6.40
2023-02-04T23:34:10.479Z,6.30
2023-02-04T23:37:35.971Z,5.70
2023-02-04T23:41:01.411Z,4.70
2023-02-04T23:44:25.556Z,5.20
2023-02-04T23:48:09.475Z,5.50
2023-02-04T23:52:08.552Z,5.30
2023-02-04T23:56:06.520Z,4.60
